createdAt,value
2023-03-05T00:01:19.312Z,3.40
2023-03-05T00:03:47.108Z,3.40
2023-03-05T00:06:14.586Z,3.40
2023-03-05T00:08:41.594Z,3.40
2023-03-05T00:11:12.056Z,3.40
2023-03-05T00:13:39.901Z,3.50
2023-03-05T00:16:09.726Z,3.50
2023-03-05T00:18:38.095Z,3.50
2023-03-05T00:21:06.196Z,3.50
2023-03-05T00:23:33.277Z,3.50
2023-03-05T00:26:05.399Z,3.50
2023-03-05T00:28:32.423Z,3.50
2023-03-05T00:31:03.141Z,3.50
2023-03-05T00:33:30.097Z,3.50
2023-03-05T00:35:57.573Z,3.50
2023-03-05T00:38:24.599Z,3.60
2023-03-05T00:40:51.635Z,3.50
2023-03-05T00:43:18.612Z,3.50
2023-03-05T00:45:45.646Z,3.60
2023-03-05T00:48:12.770Z,3.60
2023-03-05T00:50:39.762Z,3.60
2023-03-05T00:53:06.734Z,3.60
2023-03-05T00:55:33.853Z,3.60
2023-03-05T00:58:00.829Z,3.60
2023-03-05T01:00:27.839Z,3.60
2023-03-05T01:02:55.007Z,3.60
2023-03-05T01:05:22.216Z,3.60
2023-03-05T01:07:53.207Z,3.60
2023-03-05T01:10:21.396Z,3.60
2023-03-05T01:12:48.446Z,3.60
2023-03-05T01:15:15.834Z,3.60
2023-03-05T01:17:42.906Z,3.60
2023-03-05T01:20:13.662Z,3.60
2023-03-05T01:22:40.861Z,3.60
2023-03-05T01:25:08.366Z,3.60
2023-03-05T01:27:35.543Z,3.60
2023-03-05T01:30:02.539Z,3.60
2023-03-05T01:32:29.674Z,3.60
2023-03-05T01:34:56.714Z,3.60
2023-03-05T01:37:23.832Z,3.60
2023-03-05T01:39:50.839Z,3.60
2023-03-05T01:42:19.557Z,3.60
2023-03-05T01:45:07.828Z,3.60
2023-03-05T01:47:34.781Z,3.60
2023-03-05T01:50:02.643Z,3.60
2023-03-05T01:52:32.190Z,3.60
2023-03-05T01:55:03.254Z,3.60
2023-03-05T01:57:43.133Z,3.60
2023-03-05T02:00:32.390Z,3.60
2023-03-05T02:03:03.867Z,3.60
2023-03-05T02:05:33.515Z,3.60
2023-03-05T02:08:03.244Z,3.60
2023-03-05T02:10:39.102Z,3.60
2023-03-05T02:13:14.553Z,3.60
2023-03-05T02:15:42.265Z,3.70
2023-03-05T02:18:10.031Z,3.70
2023-03-05T02:20:54.304Z,3.70
2023-03-05T02:23:23.365Z,3.70
2023-03-05T02:25:50.760Z,3.70
2023-03-05T02:28:26.126Z,3.70
2023-03-05T02:30:53.743Z,3.70
2023-03-05T02:33:21.347Z,3.70
2023-03-05T02:35:48.570Z,3.70
2023-03-05T02:38:18.691Z,3.70
2023-03-05T02:40:45.723Z,3.70
2023-03-05T02:43:13.039Z,3.80
2023-03-05T02:45:40.473Z,3.70
2023-03-05T02:48:07.919Z,3.70
2023-03-05T02:50:35.236Z,3.70
2023-03-05T02:53:02.346Z,3.70
2023-03-05T02:55:29.367Z,3.80
2023-03-05T02:57:56.396Z,3.80
2023-03-05T03:00:23.534Z,3.80
2023-03-05T03:02:50.673Z,3.80
2023-03-05T03:05:18.010Z,3.80
2023-03-05T03:07:45.091Z,3.80
2023-03-05T03:10:12.814Z,3.80
2023-03-05T03:12:41.434Z,3.80
2023-03-05T03:15:10.189Z,3.70
2023-03-05T03:17:37.857Z,3.70
2023-03-05T03:20:08.094Z,3.70
2023-03-05T03:22:35.297Z,3.70
2023-03-05T03:25:02.812Z,3.70
2023-03-05T03:27:29.790Z,3.70
2023-03-05T03:29:56.856Z,3.70
2023-03-05T03:32:23.905Z,3.70
2023-03-05T03:34:50.941Z,3.70
2023-03-05T03:37:17.936Z,3.70
2023-03-05T03:39:44.994Z,3.70
2023-03-05T03:42:12.016Z,3.70
2023-03-05T03:44:39.030Z,3.70
2023-03-05T03:47:06.262Z,3.70
2023-03-05T03:49:33.183Z,3.70
2023-03-05T03:52:00.621Z,3.70
2023-03-05T03:54:27.877Z,3.70
2023-03-05T03:56:54.930Z,3.70
2023-03-05T03:59:22.077Z,3.70
2023-03-05T04:01:49.086Z,3.70
2023-03-05T04:04:16.184Z,3.80
2023-03-05T04:06:43.554Z,3.70
2023-03-05T04:09:10.588Z,3.70
2023-03-05T04:11:38.074Z,3.70
2023-03-05T04:14:05.733Z,3.70
2023-03-05T04:16:32.879Z,3.70
2023-03-05T04:18:59.842Z,3.80
2023-03-05T04:21:26.882Z,3.80
2023-03-05T04:23:53.924Z,3.80
2023-03-05T04:26:20.967Z,3.80
2023-03-05T04:28:48.580Z,3.80
2023-03-05T04:31:15.977Z,3.80
2023-03-05T04:33:43.012Z,3.80
2023-03-05T04:36:10.124Z,3.80
2023-03-05T04:38:37.066Z,3.80
2023-03-05T04:41:04.174Z,3.80
2023-03-05T04:43:31.192Z,3.80
2023-03-05T04:45:58.414Z,3.80
2023-03-05T04:48:26.397Z,3.80
2023-03-05T04:50:53.387Z,3.80
2023-03-05T04:53:20.414Z,3.90
2023-03-05T04:55:52.149Z,3.80
2023-03-05T04:58:19.200Z,3.80
2023-03-05T05:00:46.477Z,3.80
2023-03-05T05:03:13.559Z,3.80
2023-03-05T05:05:40.733Z,3.70
2023-03-05T05:08:07.846Z,3.80
2023-03-05T05:10:34.951Z,3.80
2023-03-05T05:13:02.008Z,3.80
2023-03-05T05:15:28.992Z,3.80
2023-03-05T05:17:56.019Z,3.80
2023-03-05T05:20:23.123Z,3.70
2023-03-05T05:22:50.129Z,3.70
2023-03-05T05:25:17.193Z,3.70
2023-03-05T05:27:44.245Z,3.70
2023-03-05T05:30:11.816Z,3.70
2023-03-05T05:32:39.038Z,3.70
2023-03-05T05:35:06.646Z,3.70
2023-03-05T05:37:33.637Z,3.70
2023-03-05T05:40:00.777Z,3.70
2023-03-05T05:42:29.608Z,3.70
2023-03-05T05:44:56.618Z,3.80
2023-03-05T05:47:23.657Z,3.80
2023-03-05T05:49:50.788Z,3.80
2023-03-05T05:52:17.858Z,3.80
2023-03-05T05:54:44.910Z,3.80
2023-03-05T05:57:11.916Z,3.80
2023-03-05T05:59:39.480Z,3.80
2023-03-05T06:02:08.055Z,3.80
2023-03-05T06:04:36.121Z,3.80
2023-03-05T06:07:03.788Z,3.80
2023-03-05T06:09:30.975Z,3.80
2023-03-05T06:11:58.145Z,3.80
2023-03-05T06:14:25.183Z,3.80
2023-03-05T06:16:52.298Z,3.80
2023-03-05T06:19:19.304Z,3.90
2023-03-05T06:21:46.335Z,3.90
2023-03-05T06:24:13.940Z,3.90
2023-03-05T06:26:41.017Z,3.90
2023-03-05T06:29:08.112Z,3.90
2023-03-05T06:31:37.139Z,3.90
2023-03-05T06:34:04.382Z,3.90
2023-03-05T06:36:32.039Z,3.90
2023-03-05T06:38:59.136Z,3.90
2023-03-05T06:41:29.657Z,3.90
2023-03-05T06:43:57.561Z,3.90
2023-03-05T06:46:30.032Z,3.90
2023-03-05T06:48:58.805Z,3.90
2023-03-05T06:51:31.654Z,3.90
2023-03-05T06:54:11.466Z,3.90
2023-03-05T06:56:40.920Z,3.90
2023-03-05T06:59:08.924Z,3.90
2023-03-05T07:01:36.260Z,3.90
2023-03-05T07:04:04.500Z,4.00
2023-03-05T07:06:36.257Z,4.00
2023-03-05T07:09:05.732Z,4.00
2023-03-05T07:11:34.173Z,4.00
2023-03-05T07:14:01.706Z,4.10
2023-03-05T07:16:31.718Z,4.10
2023-03-05T07:19:02.937Z,4.10
2023-03-05T07:21:33.267Z,4.10
2023-03-05T07:24:02.203Z,4.10
2023-03-05T07:26:33.634Z,4.10
2023-03-05T07:29:01.912Z,4.20
2023-03-05T07:31:32.083Z,4.20
2023-03-05T07:34:02.066Z,4.20
2023-03-05T07:36:31.027Z,4.20
2023-03-05T07:38:58.139Z,4.20
2023-03-05T07:41:25.199Z,4.30
2023-03-05T07:43:54.599Z,4.30
2023-03-05T07:46:25.525Z,4.40
2023-03-05T07:48:54.800Z,4.40
2023-03-05T07:51:22.936Z,4.50
2023-03-05T07:53:51.742Z,4.50
2023-03-05T07:56:35.525Z,4.50
2023-03-05T07:59:05.845Z,4.50
2023-03-05T08:01:34.175Z,4.50
2023-03-05T08:04:02.319Z,4.50
2023-03-05T08:06:29.754Z,4.50
2023-03-05T08:08:57.375Z,4.50
2023-03-05T08:11:24.433Z,4.50
2023-03-05T08:13:51.687Z,4.50
2023-03-05T08:16:21.796Z,4.50
2023-03-05T08:18:49.310Z,4.60
2023-03-05T08:21:22.095Z,4.60
2023-03-05T08:23:49.751Z,4.70
2023-03-05T08:26:20.185Z,4.70
2023-03-05T08:28:47.680Z,4.80
2023-03-05T08:31:17.509Z,4.80
2023-03-05T08:33:44.764Z,4.90
2023-03-05T08:36:11.803Z,5.00
2023-03-05T08:38:38.926Z,5.00
2023-03-05T08:41:06.634Z,5.10
2023-03-05T08:43:33.797Z,5.20
2023-03-05T08:46:02.071Z,5.30
2023-03-05T08:48:29.723Z,5.30
2023-03-05T08:50:56.736Z,5.30
2023-03-05T08:53:24.182Z,5.40
2023-03-05T08:55:55.894Z,5.50
2023-03-05T08:58:23.738Z,5.50
2023-03-05T09:00:51.418Z,5.60
2023-03-05T09:03:19.459Z,5.60
2023-03-05T09:05:46.682Z,5.60
2023-03-05T09:08:14.936Z,5.50
2023-03-05T09:10:43.161Z,5.60
2023-03-05T09:13:10.790Z,5.50
2023-03-05T09:15:38.913Z,5.50
2023-03-05T09:18:06.675Z,5.60
2023-03-05T09:20:34.108Z,5.70
2023-03-05T09:23:01.151Z,5.80
2023-03-05T09:25:28.234Z,5.90
2023-03-05T09:27:55.236Z,6.10
2023-03-05T09:30:22.393Z,6.30
2023-03-05T09:32:51.185Z,6.40
2023-03-05T09:35:18.367Z,6.50
2023-03-05T09:37:45.461Z,6.60
2023-03-05T09:40:18.170Z,6.70
2023-03-05T09:43:03.525Z,6.80
2023-03-05T09:45:44.824Z,6.90
2023-03-05T09:48:25.950Z,7.00
2023-03-05T09:51:04.710Z,7.10
2023-03-05T09:53:43.324Z,7.20
2023-03-05T09:56:18.741Z,7.30
2023-03-05T09:58:51.233Z,7.30
2023-03-05T10:01:29.307Z,7.10
2023-03-05T10:04:01.921Z,6.90
2023-03-05T10:06:34.399Z,6.90
2023-03-05T10:09:07.426Z,6.80
2023-03-05T10:12:06.141Z,6.70
2023-03-05T10:14:39.865Z,6.70
2023-03-05T10:17:35.659Z,6.70
2023-03-05T10:20:25.648Z,6.70
2023-03-05T10:23:25.783Z,6.70
2023-03-05T10:26:07.675Z,6.90
2023-03-05T10:28:45.725Z,6.90
2023-03-05T10:31:35.751Z,6.90
2023-03-05T10:34:23.119Z,7.00
2023-03-05T10:36:58.250Z,7.10
2023-03-05T10:39:43.259Z,7.20
2023-03-05T10:42:31.020Z,7.20
2023-03-05T10:45:00.533Z,7.30
2023-03-05T10:47:40.735Z,7.40
2023-03-05T10:50:21.620Z,7.40
2023-03-05T10:53:07.505Z,7.50
2023-03-05T10:55:34.981Z,7.50
2023-03-05T10:58:10.810Z,7.50
2023-03-05T11:00:38.330Z,7.30
2023-03-05T11:03:08.740Z,7.20
2023-03-05T11:05:39.303Z,7.00
2023-03-05T11:08:25.154Z,6.90
2023-03-05T11:11:04.457Z,6.90
2023-03-05T11:13:32.992Z,6.80
2023-03-05T11:16:05.708Z,6.70
2023-03-05T11:18:37.811Z,6.70
2023-03-05T11:21:20.104Z,6.70
2023-03-05T11:24:18.942Z,6.60
2023-03-05T11:26:53.804Z,6.50
2023-03-05T11:29:32.963Z,6.40
2023-03-05T11:32:25.523Z,6.40
2023-03-05T11:34:53.878Z,6.40
2023-03-05T11:37:33.074Z,6.40
2023-03-05T11:40:22.831Z,6.30
2023-03-05T11:43:01.538Z,6.30
2023-03-05T11:45:30.736Z,6.30
2023-03-05T11:48:09.178Z,6.30
2023-03-05T11:50:40.188Z,6.30
2023-03-05T11:53:14.057Z,6.20
2023-03-05T11:55:49.041Z,6.20
2023-03-05T11:58:32.367Z,6.20
2023-03-05T12:01:01.318Z,6.10
2023-03-05T12:03:35.474Z,6.10
2023-03-05T12:06:33.330Z,6.10
2023-03-05T12:09:22.517Z,6.10
2023-03-05T12:11:56.482Z,6.20
2023-03-05T12:14:36.969Z,6.20
2023-03-05T12:17:32.011Z,6.10
2023-03-05T12:20:14.494Z,5.90
2023-03-05T12:22:44.550Z,6.00
2023-03-05T12:25:32.433Z,6.00
2023-03-05T12:28:00.136Z,6.00
2023-03-05T12:30:42.337Z,6.00
2023-03-05T12:33:43.803Z,6.00
2023-03-05T12:36:23.341Z,6.00
2023-03-05T12:38:54.588Z,5.90
2023-03-05T12:41:26.943Z,5.90
2023-03-05T12:44:07.310Z,5.90
2023-03-05T12:46:42.131Z,6.00
2023-03-05T12:49:19.252Z,6.00
2023-03-05T12:51:59.585Z,6.00
2023-03-05T12:54:36.738Z,5.90
2023-03-05T12:57:19.649Z,5.90
2023-03-05T12:59:50.671Z,5.90
2023-03-05T13:02:45.583Z,6.00
2023-03-05T13:05:30.531Z,5.90
2023-03-05T13:08:32.292Z,5.90
2023-03-05T13:11:02.261Z,5.90
2023-03-05T13:13:33.461Z,6.00
2023-03-05T13:16:01.861Z,6.10
2023-03-05T13:18:33.031Z,6.00
2023-03-05T13:21:08.067Z,6.10
2023-03-05T13:23:36.519Z,6.10
2023-03-05T13:26:19.262Z,6.10
2023-03-05T13:29:08.186Z,6.00
2023-03-05T13:31:36.929Z,6.00
2023-03-05T13:34:26.528Z,6.00
2023-03-05T13:37:05.542Z,6.10
2023-03-05T13:39:41.923Z,6.00
2023-03-05T13:42:27.640Z,6.00
2023-03-05T13:45:05.742Z,6.00
2023-03-05T13:47:35.749Z,6.10
2023-03-05T13:50:06.723Z,6.10
2023-03-05T13:52:45.137Z,6.10
2023-03-05T13:55:18.128Z,6.10
2023-03-05T13:57:50.694Z,6.00
2023-03-05T14:00:42.428Z,6.00
2023-03-05T14:03:20.733Z,6.00
2023-03-05T14:05:51.401Z,6.10
2023-03-05T14:08:27.239Z,6.10
2023-03-05T14:10:57.645Z,6.00
2023-03-05T14:13:28.359Z,6.00
2023-03-05T14:16:13.216Z,6.00
2023-03-05T14:18:53.822Z,6.10
2023-03-05T14:21:22.076Z,6.10
2023-03-05T14:23:53.395Z,6.00
2023-03-05T14:26:30.597Z,6.00
2023-03-05T14:29:21.557Z,6.00
2023-03-05T14:31:56.174Z,6.10
2023-03-05T14:34:36.572Z,6.10
2023-03-05T14:37:18.159Z,6.10
2023-03-05T14:39:56.265Z,6.00
2023-03-05T14:42:30.003Z,6.10
2023-03-05T14:45:00.489Z,6.00
2023-03-05T14:47:29.741Z,6.00
2023-03-05T14:49:58.590Z,6.00
2023-03-05T14:52:26.999Z,6.00
2023-03-05T14:54:56.457Z,6.00
2023-03-05T14:57:27.903Z,6.00
2023-03-05T14:59:56.385Z,6.00
2023-03-05T15:02:26.847Z,5.90
2023-03-05T15:04:55.072Z,6.00
2023-03-05T15:07:34.548Z,6.00
2023-03-05T15:10:02.672Z,6.00
2023-03-05T15:12:30.648Z,5.90
2023-03-05T15:14:58.715Z,5.90
2023-03-05T15:17:52.420Z,5.80
2023-03-05T15:20:31.154Z,5.80
2023-03-05T15:22:59.298Z,5.80
2023-03-05T15:25:29.300Z,5.70
2023-03-05T15:27:58.138Z,5.70
2023-03-05T15:30:32.283Z,5.70
2023-03-05T15:33:04.425Z,5.70
2023-03-05T15:35:32.784Z,5.70
2023-03-05T15:38:00.895Z,5.70
2023-03-05T15:40:29.756Z,5.70
2023-03-05T15:42:59.114Z,5.70
2023-03-05T15:45:28.510Z,5.70
2023-03-05T15:47:56.318Z,5.70
2023-03-05T15:50:24.214Z,5.70
2023-03-05T15:52:52.767Z,5.70
2023-03-05T15:55:22.198Z,5.70
2023-03-05T15:57:52.256Z,5.70
2023-03-05T16:00:29.477Z,5.70
2023-03-05T16:02:57.827Z,5.60
2023-03-05T16:05:26.626Z,5.60
2023-03-05T16:07:55.949Z,5.60
2023-03-05T16:10:27.856Z,5.60
2023-03-05T16:13:10.731Z,5.60
2023-03-05T16:15:41.609Z,5.60
2023-03-05T16:18:15.689Z,5.50
2023-03-05T16:20:46.471Z,5.50
2023-03-05T16:23:14.462Z,5.50
2023-03-05T16:25:42.370Z,5.50
2023-03-05T16:28:11.292Z,5.50
2023-03-05T16:30:40.475Z,5.50
2023-03-05T16:33:08.160Z,5.40
2023-03-05T16:35:36.005Z,5.40
2023-03-05T16:38:07.795Z,5.40
2023-03-05T16:41:05.862Z,5.40
2023-03-05T16:43:26.981Z,5.40
2023-03-05T16:45:55.341Z,5.40
2023-03-05T16:48:25.388Z,5.30
2023-03-05T16:50:54.082Z,5.30
2023-03-05T16:53:22.444Z,5.30
2023-03-05T16:55:50.717Z,5.30
2023-03-05T16:58:18.621Z,5.30
2023-03-05T17:00:49.334Z,5.30
2023-03-05T17:03:17.393Z,5.30
2023-03-05T17:05:45.448Z,5.30
2023-03-05T17:08:13.443Z,5.30
2023-03-05T17:10:44.000Z,5.30
2023-03-05T17:13:13.508Z,5.30
2023-03-05T17:18:11.479Z,5.30
2023-03-05T17:20:41.430Z,5.30
2023-03-05T17:23:09.717Z,5.30
2023-03-05T17:25:38.586Z,5.30
2023-03-05T17:28:06.880Z,5.30
2023-03-05T17:30:37.573Z,5.20
2023-03-05T17:33:06.306Z,5.20
2023-03-05T17:35:36.575Z,5.20
2023-03-05T17:38:07.612Z,5.20
2023-03-05T17:40:37.420Z,5.10
2023-03-05T17:43:07.952Z,5.20
2023-03-05T17:45:35.969Z,5.20
2023-03-05T17:48:04.906Z,5.20
2023-03-05T17:50:33.639Z,5.10
2023-03-05T17:53:01.960Z,5.10
2023-03-05T17:55:29.579Z,5.10
2023-03-05T17:57:57.977Z,5.10
2023-03-05T18:00:29.617Z,5.10
2023-03-05T18:02:59.838Z,5.10
2023-03-05T18:05:29.371Z,5.10
2023-03-05T18:08:02.924Z,5.10
2023-03-05T18:10:31.968Z,5.10
2023-03-05T18:12:59.970Z,5.10
2023-03-05T18:15:30.059Z,5.10
2023-03-05T18:18:00.252Z,5.10
2023-03-05T18:20:37.003Z,5.10
2023-03-05T18:23:07.324Z,5.10
2023-03-05T18:25:36.059Z,5.10
2023-03-05T18:28:09.445Z,5.10
2023-03-05T18:30:41.323Z,5.10
2023-03-05T18:33:16.587Z,5.10
2023-03-05T18:35:44.805Z,5.10
2023-03-05T18:38:13.046Z,5.10
2023-03-05T18:40:42.156Z,5.10
2023-03-05T18:43:11.614Z,5.10
2023-03-05T18:45:39.972Z,5.10
2023-03-05T18:48:12.107Z,5.10
2023-03-05T18:50:40.316Z,5.10
2023-03-05T18:53:08.477Z,5.10
2023-03-05T18:55:36.030Z,5.20
2023-03-05T18:58:05.411Z,5.10
2023-03-05T19:00:33.664Z,5.20
2023-03-05T19:03:04.080Z,5.10
2023-03-05T19:05:33.072Z,5.10
2023-03-05T19:08:01.689Z,5.10
2023-03-05T19:10:29.900Z,5.10
2023-03-05T19:13:29.058Z,5.00
2023-03-05T19:15:57.075Z,5.10
2023-03-05T19:18:28.980Z,5.00
2023-03-05T19:20:57.107Z,5.00
2023-03-05T19:23:26.055Z,5.00
2023-03-05T19:25:54.329Z,5.00
2023-03-05T19:28:22.574Z,5.00
2023-03-05T19:30:51.395Z,5.00
2023-03-05T19:33:20.751Z,5.10
2023-03-05T19:35:50.604Z,5.10
2023-03-05T19:38:19.414Z,5.10
2023-03-05T19:40:49.804Z,5.10
2023-03-05T19:43:18.915Z,5.10
2023-03-05T19:45:48.279Z,5.10
2023-03-05T19:48:17.082Z,5.10
2023-03-05T19:50:45.190Z,5.10
2023-03-05T19:53:12.941Z,5.10
2023-03-05T19:55:41.884Z,5.10
2023-03-05T19:58:12.949Z,5.10
2023-03-05T20:00:40.875Z,5.20
2023-03-05T20:03:09.253Z,5.20
2023-03-05T20:05:38.717Z,5.20
2023-03-05T20:08:06.711Z,5.10
2023-03-05T20:10:34.632Z,5.20
2023-03-05T20:13:02.966Z,5.10
2023-03-05T20:15:33.451Z,5.10
2023-03-05T20:18:01.660Z,5.10
2023-03-05T20:20:31.650Z,5.10
2023-03-05T20:22:59.094Z,5.10
2023-03-05T20:25:27.782Z,5.10
2023-03-05T20:27:54.782Z,5.10
2023-03-05T20:30:22.881Z,5.10
2023-03-05T20:32:53.277Z,5.10
2023-03-05T20:35:21.454Z,5.10
2023-03-05T20:38:12.139Z,5.10
2023-03-05T20:40:41.186Z,5.10
2023-03-05T20:43:08.718Z,5.10
2023-03-05T20:45:37.336Z,5.10
2023-03-05T20:48:05.940Z,5.10
2023-03-05T20:50:37.124Z,5.10
2023-03-05T20:53:05.406Z,5.10
2023-03-05T20:55:33.360Z,5.10
2023-03-05T20:58:02.805Z,5.10
2023-03-05T21:00:31.913Z,5.00
2023-03-05T21:03:00.156Z,5.00
2023-03-05T21:05:30.843Z,5.00
2023-03-05T21:08:00.483Z,5.00
2023-03-05T21:10:28.737Z,5.00
2023-03-05T21:13:00.364Z,5.00
2023-03-05T21:15:31.238Z,5.00
2023-03-05T21:17:58.912Z,5.00
2023-03-05T21:20:30.267Z,5.00
2023-03-05T21:22:58.746Z,5.00
2023-03-05T21:25:32.428Z,5.00
2023-03-05T21:28:09.639Z,5.00
2023-03-05T21:30:39.913Z,4.90
2023-03-05T21:33:24.280Z,4.90
2023-03-05T21:35:53.437Z,4.90
2023-03-05T21:38:25.690Z,4.90
2023-03-05T21:40:54.230Z,4.90
2023-03-05T21:43:23.357Z,4.90
2023-03-05T21:45:53.742Z,4.90
2023-03-05T21:48:22.521Z,4.90
2023-03-05T21:50:50.453Z,4.80
2023-03-05T21:53:19.203Z,4.80
2023-03-05T21:56:21.101Z,4.80
2023-03-05T21:58:48.625Z,4.80
2023-03-05T22:01:18.551Z,4.80
2023-03-05T22:03:45.934Z,4.80
2023-03-05T22:06:15.112Z,4.70
2023-03-05T22:08:42.384Z,4.70
2023-03-05T22:11:21.013Z,4.70
2023-03-05T22:13:48.107Z,4.70
2023-03-05T22:16:25.905Z,4.70
2023-03-05T22:18:53.213Z,4.70
2023-03-05T22:21:22.738Z,4.70
2023-03-05T22:23:50.093Z,4.70
2023-03-05T22:26:17.170Z,4.70
2023-03-05T22:28:44.503Z,4.70
2023-03-05T22:31:11.954Z,4.70
2023-03-05T22:33:38.982Z,4.70
2023-03-05T22:36:11.365Z,4.70
2023-03-05T22:38:38.561Z,4.70
2023-03-05T22:41:10.684Z,4.70
2023-03-05T22:43:38.039Z,4.80
2023-03-05T22:46:17.040Z,4.80
2023-03-05T22:48:44.522Z,4.80
2023-03-05T22:51:12.034Z,4.80
2023-03-05T22:53:40.187Z,4.80
2023-03-05T22:56:13.005Z,4.70
2023-03-05T22:58:40.952Z,4.70
2023-03-05T23:01:16.001Z,4.70
2023-03-05T23:03:43.387Z,4.70
2023-03-05T23:06:10.656Z,4.70
2023-03-05T23:08:37.694Z,4.70
2023-03-05T23:11:12.509Z,4.70
2023-03-05T23:13:40.646Z,4.70
2023-03-05T23:16:08.357Z,4.70
2023-03-05T23:18:35.421Z,4.70
2023-03-05T23:21:02.442Z,4.70
2023-03-05T23:23:29.413Z,4.70
2023-03-05T23:25:56.525Z,4.70
2023-03-05T23:28:23.550Z,4.70
2023-03-05T23:30:50.574Z,4.70
2023-03-05T23:33:23.355Z,4.70
2023-03-05T23:35:53.050Z,4.70
2023-03-05T23:38:20.668Z,4.60
2023-03-05T23:40:50.533Z,4.60
2023-03-05T23:43:19.623Z,4.60
2023-03-05T23:45:48.397Z,4.60
2023-03-05T23:48:16.672Z,4.60
2023-03-05T23:50:45.621Z,4.60
2023-03-05T23:53:21.008Z,4.60
2023-03-05T23:55:48.557Z,4.60
2023-03-05T23:58:17.064Z,4.60
